Time;durP1;ratioP1;P1;durP2;ratioP2;P2;SDS_P1;SDS_P2;PMS_P1;PMS_P2;Temp;Humidity;BMP_temperature;BMP_pressure;BME280_temperature;BME280_humidity;BME280_pressure;Samples;Min_cycle;Max_cycle;Signal;HPM_P1;HPM_P2
2022/01/21 04:51:28;;;;;;;9.40;2.50;;;1.90;99.90;;;;;;5178947;23;20053;-80
2022/01/21 04:53:56;;;;;;;7.38;2.60;;;1.90;99.90;;;;;;4875975;29;20083;-81
2022/01/21 04:56:24;;;;;;;9.85;2.67;;;1.90;99.90;;;;;;4884058;29;20135;-81
2022/01/21 04:58:53;;;;;;;10.13;2.72;;;1.90;99.90;;;;;;4884295;29;20084;-81
2022/01/21 05:01:20;;;;;;;8.45;2.88;;;1.90;99.90;;;;;;4883356;29;20049;-80
2022/01/21 05:03:49;;;;;;;8.85;2.85;;;1.90;99.90;;;;;;4883118;29;20565;-81
2022/01/21 05:06:16;;;;;;;11.35;2.70;;;1.90;99.90;;;;;;4882985;29;20057;-80
2022/01/21 05:08:51;;;;;;;8.88;2.58;;;1.90;99.90;;;;;;4882839;29;20135;-80
2022/01/21 05:11:18;;;;;;;11.88;2.72;;;1.90;99.90;;;;;;4883264;29;20049;-80
2022/01/21 05:13:54;;;;;;;6.47;2.60;;;1.90;99.90;;;;;;4883029;29;20479;-79
2022/01/21 05:16:32;;;;;;;7.78;2.38;;;1.90;99.90;;;;;;4882432;29;20063;-81
2022/01/21 05:19:06;;;;;;;8.43;2.95;;;1.90;99.90;;;;;;4881621;29;20423;-79
2022/01/21 05:21:33;;;;;;;10.85;2.80;;;1.90;99.90;;;;;;4877052;29;20052;-80
2022/01/21 05:24:02;;;;;;;8.20;2.90;;;1.80;99.90;;;;;;4881805;29;20566;-82
2022/01/21 05:26:36;;;;;;;11.68;3.78;;;1.90;99.90;;;;;;4881785;29;20088;-80
2022/01/21 05:29:05;;;;;;;10.85;2.95;;;1.90;99.90;;;;;;4879874;29;20053;-79
2022/01/21 05:31:32;;;;;;;10.10;3.15;;;1.80;99.90;;;;;;4883264;29;20151;-80
2022/01/21 05:33:59;;;;;;;12.73;3.67;;;1.80;99.90;;;;;;4866622;29;20057;-80
2022/01/21 05:36:28;;;;;;;7.60;3.10;;;1.70;99.90;;;;;;4882626;29;20135;-79
2022/01/21 05:38:55;;;;;;;10.18;3.47;;;1.70;99.90;;;;;;4883139;29;20456;-80
2022/01/21 05:41:25;;;;;;;8.25;3.40;;;1.70;99.90;;;;;;4866879;29;20053;-79
2022/01/21 05:44:00;;;;;;;6.85;2.95;;;1.70;99.90;;;;;;4883427;29;20045;-79
2022/01/21 05:46:40;;;;;;;9.00;3.22;;;1.70;99.90;;;;;;4881820;29;20510;-81
2022/01/21 05:49:07;;;;;;;9.23;3.25;;;1.70;99.90;;;;;;4883037;29;20215;-81
2022/01/21 05:51:35;;;;;;;7.80;3.13;;;1.70;99.90;;;;;;4882101;29;20072;-80
2022/01/21 05:54:02;;;;;;;13.93;3.50;;;1.70;99.90;;;;;;4882461;29;20071;-80
2022/01/21 05:56:32;;;;;;;9.90;3.70;;;1.70;99.90;;;;;;4882681;29;20084;-81
2022/01/21 05:59:00;;;;;;;10.82;3.40;;;1.70;99.90;;;;;;4881978;29;20143;-81
2022/01/21 06:01:27;;;;;;;7.80;3.28;;;1.70;99.90;;;;;;4882108;29;20084;-81
2022/01/21 06:03:54;;;;;;;12.13;3.55;;;1.70;99.90;;;;;;4881552;29;20049;-80
2022/01/21 06:06:22;;;;;;;9.32;3.35;;;1.80;99.90;;;;;;4881274;29;20139;-80
2022/01/21 06:08:49;;;;;;;10.90;3.33;;;1.70;99.90;;;;;;4881859;29;20140;-80
2022/01/21 06:11:16;;;;;;;12.68;3.65;;;1.80;99.90;;;;;;4882036;29;20132;-81
2022/01/21 06:13:46;;;;;;;8.93;3.42;;;1.80;99.90;;;;;;4881775;29;20141;-80
2022/01/21 06:16:13;;;;;;;12.68;4.10;;;1.80;99.90;;;;;;4881516;29;20490;-81
2022/01/21 06:18:40;;;;;;;9.30;3.42;;;1.80;99.90;;;;;;4882054;29;20553;-80
2022/01/21 06:21:07;;;;;;;14.98;4.47;;;1.80;99.90;;;;;;4881283;29;20049;-80
2022/01/21 06:23:34;;;;;;;8.75;3.60;;;1.90;99.90;;;;;;4881114;29;20049;-80
2022/01/21 06:26:02;;;;;;;9.57;3.10;;;1.80;99.90;;;;;;4881576;29;20053;-80
2022/01/21 06:28:29;;;;;;;9.60;3.40;;;1.90;99.90;;;;;;4880659;29;20139;-81
2022/01/21 06:30:58;;;;;;;10.77;3.92;;;1.90;99.90;;;;;;4862697;29;20427;-81
2022/01/21 06:33:25;;;;;;;10.82;3.58;;;1.90;99.90;;;;;;4862234;29;20133;-80
2022/01/21 06:35:57;;;;;;;11.70;3.45;;;1.90;99.90;;;;;;4846140;29;20050;-80
2022/01/21 06:38:24;;;;;;;8.50;3.55;;;2.00;99.90;;;;;;4862178;29;20056;-80
2022/01/21 06:40:52;;;;;;;9.13;3.10;;;2.00;99.90;;;;;;4861888;29;20522;-80
2022/01/21 06:43:20;;;;;;;8.25;3.10;;;2.00;99.90;;;;;;4861850;29;20490;-80
2022/01/21 06:45:47;;;;;;;11.55;3.50;;;2.10;99.90;;;;;;4861806;29;20064;-80
2022/01/21 06:48:16;;;;;;;11.07;3.50;;;2.10;99.90;;;;;;4861829;29;20140;-80
2022/01/21 06:50:44;;;;;;;8.05;3.13;;;2.10;99.90;;;;;;4876784;29;20057;-80
2022/01/21 06:53:11;;;;;;;10.05;3.45;;;2.10;99.90;;;;;;4880386;29;20052;-79
2022/01/21 06:55:39;;;;;;;8.68;3.28;;;2.10;99.90;;;;;;4880207;29;20140;-80
2022/01/21 06:58:07;;;;;;;9.98;4.00;;;2.20;99.90;;;;;;4880256;29;20147;-81
2022/01/21 07:00:34;;;;;;;10.85;3.70;;;2.20;99.90;;;;;;4880185;29;20467;-80
2022/01/21 07:03:02;;;;;;;8.85;3.47;;;2.20;99.90;;;;;;4880529;29;20049;-80
2022/01/21 07:05:30;;;;;;;10.25;3.70;;;2.20;99.90;;;;;;4881623;29;20151;-80
2022/01/21 07:07:58;;;;;;;12.05;4.15;;;2.30;99.90;;;;;;4879721;29;20139;-80
2022/01/21 07:10:27;;;;;;;11.38;4.03;;;2.30;99.90;;;;;;4879793;29;20053;-80
2022/01/21 07:12:54;;;;;;;12.50;4.45;;;2.30;99.90;;;;;;4879900;29;20144;-80
2022/01/21 07:15:21;;;;;;;13.82;4.10;;;2.30;99.90;;;;;;4880124;29;20080;-79
2022/01/21 07:17:52;;;;;;;13.70;4.78;;;2.30;99.90;;;;;;4879767;29;20136;-81
2022/01/21 07:20:20;;;;;;;10.45;3.30;;;2.20;99.90;;;;;;4880104;29;20056;-80
2022/01/21 07:22:49;;;;;;;10.50;3.78;;;2.20;99.90;;;;;;4880348;29;20131;-80
2022/01/21 07:25:16;;;;;;;12.68;3.72;;;2.20;99.90;;;;;;4880244;29;20052;-80
2022/01/21 07:27:45;;;;;;;7.32;3.35;;;2.10;99.90;;;;;;4879921;29;20211;-79
2022/01/21 07:30:13;;;;;;;12.50;3.67;;;2.10;99.90;;;;;;4879729;29;20049;-80
2022/01/21 07:32:41;;;;;;;9.00;3.50;;;2.10;99.90;;;;;;4879798;29;20049;-81
2022/01/21 07:35:09;;;;;;;11.32;4.07;;;2.10;99.90;;;;;;4863535;29;20414;-80
2022/01/21 07:37:37;;;;;;;11.70;4.25;;;2.10;99.90;;;;;;4880824;29;20052;-82
2022/01/21 07:40:07;;;;;;;11.52;3.55;;;2.10;99.90;;;;;;4880852;29;20056;-81
2022/01/21 07:42:35;;;;;;;14.70;4.03;;;2.00;99.90;;;;;;4879754;29;20140;-81
2022/01/21 07:45:02;;;;;;;10.93;3.88;;;2.00;99.90;;;;;;4879958;29;20455;-81
2022/01/21 07:47:29;;;;;;;11.48;3.83;;;2.00;99.90;;;;;;4879565;29;20140;-82
2022/01/21 07:49:57;;;;;;;11.23;3.80;;;2.00;99.90;;;;;;4879304;29;20056;-81
2022/01/21 07:52:24;;;;;;;14.05;4.00;;;2.00;99.90;;;;;;4879722;29;20128;-80
2022/01/21 07:54:51;;;;;;;13.10;4.20;;;2.00;99.90;;;;;;4879835;29;20139;-81
2022/01/21 07:57:20;;;;;;;9.35;4.45;;;2.00;99.90;;;;;;4880239;29;20088;-80
2022/01/21 07:59:47;;;;;;;13.40;4.10;;;2.00;99.90;;;;;;4880400;29;20171;-82
2022/01/21 08:02:14;;;;;;;10.43;4.55;;;2.00;99.90;;;;;;4879935;29;20091;-80
2022/01/21 08:04:41;;;;;;;11.35;3.95;;;1.90;99.90;;;;;;4879802;29;20124;-80
2022/01/21 08:07:10;;;;;;;13.70;4.18;;;1.90;99.90;;;;;;4879542;29;20077;-80
2022/01/21 08:09:37;;;;;;;13.82;4.10;;;2.00;99.90;;;;;;4879065;29;20095;-80
2022/01/21 08:12:06;;;;;;;11.82;4.25;;;2.00;99.90;;;;;;4879654;29;20084;-81
2022/01/21 08:14:34;;;;;;;11.43;4.10;;;2.00;99.90;;;;;;4879317;29;20364;-80
2022/01/21 08:17:02;;;;;;;9.82;4.47;;;2.00;99.90;;;;;;4879369;29;20144;-81
2022/01/21 08:19:29;;;;;;;12.82;4.38;;;2.00;99.90;;;;;;4879214;29;20057;-80
2022/01/21 08:21:56;;;;;;;10.27;3.85;;;2.10;99.90;;;;;;4879006;29;20053;-79
2022/01/21 08:24:24;;;;;;;12.00;3.92;;;2.10;99.90;;;;;;4878514;29;20079;-80
2022/01/21 08:26:51;;;;;;;12.07;4.53;;;2.20;99.90;;;;;;4878827;29;20060;-79
2022/01/21 08:29:18;;;;;;;12.30;3.85;;;2.30;99.90;;;;;;4878927;29;20630;-80
2022/01/21 08:31:47;;;;;;;10.40;4.20;;;2.30;99.90;;;;;;4878965;29;20132;-80
2022/01/21 08:34:15;;;;;;;10.30;3.55;;;2.30;99.90;;;;;;4878911;29;20151;-79
2022/01/21 08:36:43;;;;;;;11.60;4.40;;;2.40;99.90;;;;;;4878533;29;20076;-80
2022/01/21 08:39:13;;;;;;;8.95;4.05;;;2.40;99.90;;;;;;4878449;29;20578;-79
2022/01/21 08:41:40;;;;;;;11.00;3.95;;;2.40;99.90;;;;;;4878848;29;20059;-81
2022/01/21 08:44:07;;;;;;;9.48;4.55;;;2.50;99.90;;;;;;4878751;29;20136;-80
2022/01/21 08:46:34;;;;;;;13.15;4.30;;;2.50;99.90;;;;;;4878842;29;20064;-80
2022/01/21 08:49:07;;;;;;;9.32;3.80;;;2.50;99.90;;;;;;4878668;29;20089;-79
2022/01/21 08:51:46;;;;;;;10.68;3.78;;;2.50;99.90;;;;;;4878850;29;20068;-79
2022/01/21 08:54:14;;;;;;;10.95;3.80;;;2.60;99.90;;;;;;4879661;29;20056;-79
2022/01/21 08:56:41;;;;;;;10.32;3.60;;;2.60;99.90;;;;;;4882122;29;20049;-80
2022/01/21 08:59:08;;;;;;;12.93;4.45;;;2.70;99.90;;;;;;4882115;29;20049;-79
2022/01/21 09:01:37;;;;;;;13.32;3.90;;;2.70;99.80;;;;;;4881985;29;20167;-81
2022/01/21 09:04:05;;;;;;;12.32;4.25;;;2.70;99.60;;;;;;4881626;29;20541;-80
2022/01/21 09:06:33;;;;;;;10.57;3.95;;;2.70;99.70;;;;;;4881951;29;20088;-80
2022/01/21 09:09:01;;;;;;;10.10;3.85;;;2.60;99.50;;;;;;4881883;29;20143;-79
2022/01/21 09:11:28;;;;;;;10.70;4.03;;;2.60;99.30;;;;;;4881763;29;20140;-81
2022/01/21 09:13:56;;;;;;;11.73;4.07;;;2.60;99.40;;;;;;4881988;29;20089;-81
2022/01/21 09:16:24;;;;;;;10.80;4.30;;;2.60;99.30;;;;;;4882764;29;20053;-80
2022/01/21 09:18:55;;;;;;;11.50;4.47;;;2.60;99.40;;;;;;4882225;29;20051;-80
2022/01/21 09:21:26;;;;;;;10.38;3.60;;;2.60;99.30;;;;;;4881771;29;20148;-80
2022/01/21 09:23:55;;;;;;;9.02;3.78;;;2.60;99.60;;;;;;4881653;29;20498;-80
2022/01/21 09:26:24;;;;;;;10.38;3.83;;;2.60;99.60;;;;;;4881489;29;20088;-79
2022/01/21 09:28:52;;;;;;;8.68;3.85;;;2.50;99.50;;;;;;4881681;29;20156;-80
2022/01/21 09:31:21;;;;;;;13.45;4.75;;;2.60;99.50;;;;;;4881901;29;20599;-80
2022/01/21 09:33:49;;;;;;;10.82;3.85;;;2.50;99.50;;;;;;4881516;29;20137;-80
2022/01/21 09:36:19;;;;;;;12.32;4.20;;;2.60;99.50;;;;;;4881712;29;20091;-80
2022/01/21 09:38:47;;;;;;;12.75;4.40;;;2.60;99.50;;;;;;4881218;29;20411;-80
2022/01/21 09:41:17;;;;;;;10.88;3.97;;;2.60;99.20;;;;;;4881279;29;20570;-81
2022/01/21 09:43:47;;;;;;;9.57;4.38;;;2.60;99.00;;;;;;4881415;29;20507;-81
2022/01/21 09:46:15;;;;;;;12.57;4.50;;;2.70;98.90;;;;;;4881390;29;20506;-80
2022/01/21 09:48:54;;;;;;;13.40;4.00;;;2.70;99.00;;;;;;4881424;29;20136;-80
2022/01/21 09:51:22;;;;;;;12.65;3.78;;;2.70;99.10;;;;;;4881232;29;20053;-79
2022/01/21 09:53:51;;;;;;;11.43;4.68;;;2.80;98.80;;;;;;4881191;29;20071;-80
2022/01/21 09:56:19;;;;;;;13.55;4.20;;;2.80;98.50;;;;;;4881079;29;20152;-80
2022/01/21 09:58:47;;;;;;;12.20;4.38;;;2.80;98.30;;;;;;4881648;29;20076;-81
2022/01/21 10:01:19;;;;;;;13.43;4.25;;;2.80;98.20;;;;;;4881003;29;20101;-79
2022/01/21 10:03:46;;;;;;;13.93;4.05;;;2.80;98.30;;;;;;4881038;29;20045;-79
2022/01/21 10:06:14;;;;;;;9.88;3.53;;;2.80;98.50;;;;;;4880472;29;20550;-81
2022/01/21 10:08:44;;;;;;;11.75;4.28;;;2.80;98.50;;;;;;4880201;29;20161;-80
2022/01/21 10:11:13;;;;;;;12.98;4.30;;;2.90;98.60;;;;;;4880885;29;20053;-81
2022/01/21 10:13:42;;;;;;;12.15;4.22;;;2.90;98.20;;;;;;4880845;29;20561;-81
2022/01/21 10:16:10;;;;;;;12.55;4.15;;;2.80;97.90;;;;;;4880635;29;20494;-80
2022/01/21 10:18:37;;;;;;;12.02;4.10;;;2.80;97.60;;;;;;4880465;29;20498;-79
2022/01/21 10:21:11;;;;;;;10.05;3.38;;;2.90;98.00;;;;;;4880719;29;20049;-79
2022/01/21 10:23:40;;;;;;;9.25;3.38;;;2.90;98.10;;;;;;4880313;29;20056;-78
2022/01/21 10:26:10;;;;;;;11.77;3.60;;;3.00;98.50;;;;;;4880537;29;20135;-79
2022/01/21 10:28:41;;;;;;;12.20;4.07;;;3.10;98.50;;;;;;4880385;29;20056;-81
2022/01/21 10:31:13;;;;;;;12.27;3.22;;;3.20;97.40;;;;;;4880124;29;20128;-79
2022/01/21 10:33:45;;;;;;;8.98;3.60;;;3.30;97.40;;;;;;4879187;29;20056;-80
2022/01/21 10:36:23;;;;;;;8.65;3.05;;;3.30;97.50;;;;;;4880480;29;20144;-80
2022/01/21 10:38:56;;;;;;;12.77;3.45;;;3.40;97.40;;;;;;4879702;29;20045;-81
2022/01/21 10:41:31;;;;;;;13.52;3.70;;;3.50;97.00;;;;;;4865592;29;20056;-79
2022/01/21 10:44:10;;;;;;;9.65;3.72;;;3.50;96.80;;;;;;4882013;29;20049;-79
2022/01/21 10:46:41;;;;;;;8.30;3.20;;;3.60;96.70;;;;;;4875282;29;20084;-79
2022/01/21 10:49:11;;;;;;;11.23;3.83;;;3.70;96.20;;;;;;4872231;29;20101;-82
2022/01/21 10:51:40;;;;;;;13.70;4.85;;;3.70;95.60;;;;;;4878197;29;20559;-79
2022/01/21 10:54:18;;;;;;;14.07;4.22;;;3.60;95.80;;;;;;4879119;29;20053;-79
2022/01/21 10:57:07;;;;;;;12.98;4.15;;;3.40;95.70;;;;;;4879447;29;20451;-78
2022/01/21 10:59:52;;;;;;;9.57;4.00;;;3.30;96.20;;;;;;4878565;29;20147;-80
2022/01/21 11:02:34;;;;;;;11.25;3.90;;;3.20;96.80;;;;;;4879122;29;20140;-80
2022/01/21 11:05:06;;;;;;;12.88;3.90;;;3.10;97.10;;;;;;4879575;29;20100;-77
2022/01/21 11:07:57;;;;;;;11.32;3.47;;;3.10;97.20;;;;;;4878847;29;20069;-79
2022/01/21 11:10:40;;;;;;;9.55;3.22;;;3.10;97.30;;;;;;4879342;29;20487;-78
2022/01/21 11:13:40;;;;;;;14.20;4.03;;;3.00;97.10;;;;;;4879268;29;20045;-76
2022/01/21 11:16:17;;;;;;;11.90;3.50;;;3.00;97.20;;;;;;4878552;29;20041;-78
2022/01/21 11:19:05;;;;;;;10.30;3.55;;;3.00;97.30;;;;;;4878133;29;20084;-76
2022/01/21 11:21:56;;;;;;;11.63;4.43;;;3.00;97.30;;;;;;4871832;29;20061;-75
2022/01/21 11:24:26;;;;;;;9.93;3.55;;;3.00;97.20;;;;;;4874013;29;20059;-78
2022/01/21 11:27:15;;;;;;;8.40;3.10;;;3.00;97.30;;;;;;4877847;29;20496;-76
2022/01/21 11:29:44;;;;;;;10.65;3.47;;;3.10;97.20;;;;;;4873316;29;20087;-78
2022/01/21 11:32:14;;;;;;;11.15;3.53;;;3.10;97.00;;;;;;4878753;29;20144;-79
2022/01/21 11:34:43;;;;;;;13.38;3.40;;;3.10;97.10;;;;;;4879118;29;20136;-80
2022/01/21 11:37:12;;;;;;;10.98;3.33;;;3.10;97.00;;;;;;4878788;29;20104;-81
2022/01/21 11:39:39;;;;;;;11.73;3.55;;;3.10;97.00;;;;;;4878852;29;20084;-79
2022/01/21 11:42:08;;;;;;;13.73;4.03;;;3.10;97.30;;;;;;4878672;29;20132;-79
2022/01/21 11:44:39;;;;;;;10.88;3.70;;;3.10;97.30;;;;;;4877289;29;20566;-79
2022/01/21 11:47:27;;;;;;;11.38;3.58;;;3.10;97.10;;;;;;4873664;29;20063;-79
2022/01/21 11:50:00;;;;;;;9.60;3.25;;;3.10;96.80;;;;;;4878097;29;20057;-79
2022/01/21 11:52:27;;;;;;;10.85;3.20;;;3.10;96.60;;;;;;4878536;29;20491;-78
2022/01/21 11:54:55;;;;;;;10.10;3.13;;;3.10;96.60;;;;;;4878319;29;20053;-78
2022/01/21 11:57:31;;;;;;;8.68;3.17;;;3.10;96.60;;;;;;4878785;29;20049;-78
2022/01/21 12:00:06;;;;;;;10.65;3.20;;;3.10;96.70;;;;;;4878250;29;20130;-78
2022/01/21 12:02:36;;;;;;;8.75;3.30;;;3.10;96.80;;;;;;4879005;29;20049;-79
2022/01/21 12:05:07;;;;;;;9.77;3.20;;;3.20;96.50;;;;;;4879041;29;20136;-79
2022/01/21 12:07:48;;;;;;;12.98;3.40;;;3.20;96.50;;;;;;4879171;29;20056;-80
2022/01/21 12:10:29;;;;;;;13.40;4.05;;;3.20;96.60;;;;;;4880232;29;20138;-78
2022/01/21 12:13:11;;;;;;;10.95;2.60;;;3.20;96.10;;;;;;4879130;29;20399;-78
2022/01/21 12:21:55;;;;;;;12.27;3.60;;;3.20;96.20;;;;;;4878944;29;20042;-76
2022/01/21 12:24:56;;;;;;;10.27;3.42;;;3.20;96.10;;;;;;4878965;29;20140;-77
2022/01/21 12:27:25;;;;;;;11.35;3.08;;;3.20;96.10;;;;;;4878832;29;20056;-77
2022/01/21 12:30:27;;;;;;;11.85;3.25;;;3.30;96.20;;;;;;4881780;29;20053;-76
2022/01/21 12:33:08;;;;;;;10.88;3.30;;;3.30;96.10;;;;;;4882784;29;20562;-78
2022/01/21 12:35:36;;;;;;;9.43;3.00;;;3.40;96.10;;;;;;4882599;29;20053;-77
2022/01/21 12:41:36;;;;;;;8.55;3.22;;;3.40;96.00;;;;;;4882444;29;20084;-77
2022/01/21 12:44:06;;;;;;;7.65;2.90;;;3.50;96.40;;;;;;4882344;29;20503;-77
2022/01/21 12:46:38;;;;;;;6.97;2.50;;;3.50;95.90;;;;;;4882184;29;20139;-76
2022/01/21 12:49:38;;;;;;;9.63;2.63;;;3.60;95.90;;;;;;4882381;29;20399;-77
2022/01/21 12:52:25;;;;;;;8.50;2.53;;;3.60;95.70;;;;;;4881984;29;20109;-78
2022/01/21 12:57:43;;;;;;;8.48;2.72;;;3.70;95.20;;;;;;4881796;29;20056;-75
2022/01/21 13:00:12;;;;;;;10.68;2.75;;;3.70;95.00;;;;;;4882244;29;20053;-77
2022/01/21 13:02:39;;;;;;;11.43;2.92;;;3.70;93.40;;;;;;4882066;29;20132;-77
2022/01/21 13:05:18;;;;;;;10.02;2.35;;;3.60;93.40;;;;;;4881878;29;20459;-76
2022/01/21 13:08:04;;;;;;;7.93;2.10;;;3.50;94.00;;;;;;4881795;29;20515;-76
2022/01/21 13:10:32;;;;;;;8.10;2.35;;;3.50;94.20;;;;;;4881941;29;20562;-76
2022/01/21 13:13:16;;;;;;;9.75;2.15;;;3.40;93.50;;;;;;4882194;29;20057;-77
2022/01/21 13:15:47;;;;;;;6.37;2.10;;;3.40;93.10;;;;;;4881825;29;20053;-77
2022/01/21 13:18:18;;;;;;;7.18;1.92;;;3.40;93.60;;;;;;4881903;29;20390;-77
2022/01/21 13:20:47;;;;;;;5.78;1.92;;;3.40;93.10;;;;;;4881732;29;20256;-76
2022/01/21 13:23:35;;;;;;;7.20;2.05;;;3.40;93.30;;;;;;4881837;29;20137;-79
2022/01/21 13:26:23;;;;;;;7.05;2.20;;;3.50;93.20;;;;;;4881106;29;20520;-77
2022/01/21 13:28:56;;;;;;;7.47;1.92;;;3.50;93.00;;;;;;4881704;29;20088;-75
2022/01/21 13:31:24;;;;;;;7.32;2.08;;;3.50;92.20;;;;;;4881313;29;20136;-76
2022/01/21 13:33:51;;;;;;;7.35;2.20;;;3.50;93.00;;;;;;4881272;29;20049;-76
2022/01/21 13:36:40;;;;;;;8.10;1.95;;;3.50;92.80;;;;;;4881432;29;20128;-75
2022/01/21 13:39:11;;;;;;;7.90;2.40;;;3.50;92.60;;;;;;4881555;29;20056;-76
2022/01/21 13:41:53;;;;;;;8.20;1.90;;;3.50;92.80;;;;;;4880855;29;20173;-76
2022/01/21 13:44:34;;;;;;;6.15;1.90;;;3.50;92.90;;;;;;4881450;29;20053;-77
2022/01/21 13:47:05;;;;;;;8.32;1.90;;;3.50;92.80;;;;;;4880950;29;20140;-77
2022/01/21 13:49:32;;;;;;;7.55;2.40;;;3.60;93.00;;;;;;4881561;29;20075;-77
2022/01/21 13:52:02;;;;;;;7.93;1.85;;;3.60;93.10;;;;;;4881214;29;20582;-77
2022/01/21 13:54:36;;;;;;;8.02;1.50;;;3.60;94.00;;;;;;4881731;29;20198;-79
2022/01/21 13:57:07;;;;;;;8.60;2.03;;;3.50;95.50;;;;;;4880111;29;20057;-76
2022/01/21 13:59:40;;;;;;;8.68;2.03;;;3.40;96.20;;;;;;4885367;29;20051;-77
2022/01/21 14:02:12;;;;;;;7.25;2.22;;;3.40;96.90;;;;;;4891446;29;20467;-79
2022/01/21 14:04:40;;;;;;;5.90;1.77;;;3.40;96.90;;;;;;4888448;29;20135;-75
2022/01/21 14:07:22;;;;;;;8.65;2.33;;;3.40;97.10;;;;;;4889045;29;20091;-78
2022/01/21 14:09:49;;;;;;;8.27;2.08;;;3.40;97.10;;;;;;4888551;29;20129;-79
2022/01/21 14:12:18;;;;;;;6.53;1.77;;;3.40;98.70;;;;;;4888394;29;20565;-80
2022/01/21 14:14:49;;;;;;;8.23;1.85;;;3.30;99.20;;;;;;4887879;29;20149;-79
2022/01/21 14:17:21;;;;;;;11.07;1.92;;;3.30;99.30;;;;;;4889208;29;20057;-83
2022/01/21 14:19:48;;;;;;;8.35;1.90;;;3.30;99.60;;;;;;4892198;29;20056;-77
2022/01/21 14:22:19;;;;;;;10.23;1.90;;;3.30;99.90;;;;;;4874307;29;20135;-77
2022/01/21 14:24:49;;;;;;;8.93;2.15;;;3.30;99.90;;;;;;4886442;29;20055;-77
2022/01/21 14:27:32;;;;;;;8.00;2.03;;;3.30;99.90;;;;;;4889257;29;20056;-78
2022/01/21 14:30:01;;;;;;;7.68;2.00;;;3.40;99.90;;;;;;4894507;29;20076;-78
2022/01/21 14:32:36;;;;;;;9.20;2.03;;;3.30;99.90;;;;;;4878893;29;20047;-80
2022/01/21 14:35:12;;;;;;;6.57;1.83;;;3.30;99.90;;;;;;4877099;29;20076;-78
2022/01/21 14:37:43;;;;;;;8.25;2.15;;;3.40;99.90;;;;;;4873748;29;20053;-79
2022/01/21 14:40:14;;;;;;;9.27;2.75;;;3.40;99.80;;;;;;4880140;29;20127;-79
2022/01/21 14:42:43;;;;;;;6.45;1.92;;;3.40;99.90;;;;;;4879912;29;20148;-79
2022/01/21 14:45:15;;;;;;;6.97;1.88;;;3.40;99.90;;;;;;4879335;29;20520;-80
2022/01/21 14:47:43;;;;;;;8.52;2.38;;;3.40;99.90;;;;;;4879747;29;20063;-77
2022/01/21 14:50:15;;;;;;;10.40;2.20;;;3.50;99.90;;;;;;4877529;29;20051;-78
2022/01/21 14:52:45;;;;;;;6.38;2.15;;;3.60;99.90;;;;;;4873174;29;20132;-80
2022/01/21 14:55:22;;;;;;;7.40;2.22;;;3.60;99.90;;;;;;4879270;29;20053;-79
2022/01/21 14:57:56;;;;;;;9.02;2.00;;;3.70;99.90;;;;;;4877926;29;20045;-78
2022/01/21 15:00:31;;;;;;;5.82;2.10;;;3.70;99.80;;;;;;4878588;29;20084;-77
2022/01/21 15:03:18;;;;;;;9.23;2.30;;;3.70;99.90;;;;;;4879584;29;20136;-80
2022/01/21 15:05:49;;;;;;;6.82;2.00;;;3.60;99.90;;;;;;4880003;29;20072;-77
2022/01/21 15:08:35;;;;;;;8.43;2.10;;;3.60;99.90;;;;;;4879620;29;20483;-78
2022/01/21 15:11:31;;;;;;;11.48;2.00;;;3.50;99.90;;;;;;4879968;29;20061;-79
2022/01/21 15:14:25;;;;;;;7.43;2.20;;;3.50;99.90;;;;;;4879771;29;20558;-79
2022/01/21 15:16:53;;;;;;;6.63;2.10;;;3.40;99.90;;;;;;4879214;29;20084;-79
2022/01/21 15:19:20;;;;;;;10.75;3.83;;;3.40;99.90;;;;;;4879702;29;20059;-79
2022/01/21 15:21:49;;;;;;;18.95;6.90;;;3.40;99.90;;;;;;4878476;29;20452;-81
2022/01/21 15:24:16;;;;;;;11.73;4.50;;;3.40;99.90;;;;;;4878601;29;20081;-79
2022/01/21 15:26:44;;;;;;;7.93;2.60;;;3.40;99.90;;;;;;4878916;29;20133;-80
2022/01/21 15:29:12;;;;;;;8.75;2.30;;;3.40;99.90;;;;;;4878252;29;20153;-80
2022/01/21 15:31:40;;;;;;;6.90;2.25;;;3.40;99.90;;;;;;4878482;29;20055;-79
2022/01/21 15:34:08;;;;;;;9.73;2.40;;;3.50;99.90;;;;;;4878495;29;20140;-78
2022/01/21 15:36:38;;;;;;;13.10;2.40;;;3.50;99.90;;;;;;4879092;29;20053;-78
2022/01/21 15:39:07;;;;;;;8.25;1.88;;;3.50;99.90;;;;;;4878919;29;20080;-78
2022/01/21 15:41:34;;;;;;;7.90;2.05;;;3.50;99.90;;;;;;4871744;29;20048;-78
2022/01/21 15:44:04;;;;;;;8.75;1.70;;;3.50;99.90;;;;;;4878543;29;20136;-78
2022/01/21 15:46:33;;;;;;;7.78;2.10;;;3.50;99.90;;;;;;4871828;29;20049;-77
2022/01/21 15:49:00;;;;;;;6.68;1.88;;;3.50;99.90;;;;;;4878907;29;20473;-78
2022/01/21 15:51:28;;;;;;;7.95;2.10;;;3.50;99.70;;;;;;4878335;29;20127;-79
2022/01/21 15:53:56;;;;;;;7.95;2.20;;;3.40;99.70;;;;;;4878623;29;20056;-79
2022/01/21 15:56:23;;;;;;;6.90;2.30;;;3.40;99.90;;;;;;4878277;29;20486;-78
2022/01/21 15:58:50;;;;;;;5.55;2.10;;;3.30;99.90;;;;;;4878106;29;20061;-80
2022/01/21 16:01:18;;;;;;;6.93;2.13;;;3.30;99.90;;;;;;4878386;29;20163;-79
2022/01/21 16:03:46;;;;;;;5.22;1.90;;;3.30;99.90;;;;;;4879346;29;20053;-78
2022/01/21 16:06:13;;;;;;;10.68;2.10;;;3.20;99.90;;;;;;4882309;29;20555;-79
2022/01/21 16:08:42;;;;;;;9.38;2.20;;;3.20;99.90;;;;;;4881868;29;20067;-77
2022/01/21 16:11:10;;;;;;;10.18;2.20;;;3.20;99.90;;;;;;4882896;29;20049;-77
2022/01/21 16:13:37;;;;;;;7.72;2.20;;;3.20;99.90;;;;;;4882384;29;20517;-76
2022/01/21 16:16:06;;;;;;;6.65;2.00;;;3.10;99.90;;;;;;4882148;29;20102;-79
2022/01/21 16:18:35;;;;;;;9.55;2.50;;;3.10;99.90;;;;;;4875511;29;20136;-79
2022/01/21 16:21:06;;;;;;;8.02;2.05;;;3.10;99.90;;;;;;4881576;29;20471;-79
2022/01/21 16:23:34;;;;;;;8.07;2.05;;;3.10;99.90;;;;;;4881240;29;20132;-79
2022/01/21 16:26:03;;;;;;;6.18;2.10;;;3.10;99.90;;;;;;4882421;29;20056;-78
2022/01/21 16:28:31;;;;;;;8.48;2.50;;;3.10;99.90;;;;;;4875051;29;20059;-78
2022/01/21 16:30:58;;;;;;;5.40;2.00;;;3.00;99.90;;;;;;4881988;29;20053;-79
2022/01/21 16:33:26;;;;;;;8.30;1.92;;;3.10;99.90;;;;;;4881341;29;20482;-80
2022/01/21 16:35:55;;;;;;;9.32;2.67;;;3.10;99.90;;;;;;4881607;29;20503;-77
2022/01/21 16:38:23;;;;;;;7.22;2.10;;;3.00;99.90;;;;;;4881845;29;20049;-80
2022/01/21 16:40:50;;;;;;;6.45;2.10;;;3.00;99.90;;;;;;4882026;29;20092;-80
2022/01/21 16:43:18;;;;;;;6.05;2.20;;;3.00;99.80;;;;;;4881457;29;20055;-80
2022/01/21 16:45:46;;;;;;;7.63;2.58;;;3.00;99.90;;;;;;4881704;29;20051;-79
2022/01/21 16:48:13;;;;;;;7.40;2.60;;;3.00;99.70;;;;;;4880979;29;20491;-79
2022/01/21 16:50:40;;;;;;;6.97;2.20;;;3.00;99.70;;;;;;4881737;29;20053;-78
2022/01/21 16:53:07;;;;;;;6.63;2.28;;;3.00;99.70;;;;;;4881443;29;20574;-78
2022/01/21 16:55:36;;;;;;;6.53;2.28;;;3.00;99.70;;;;;;4881660;29;20049;-81
2022/01/21 16:58:03;;;;;;;8.93;2.33;;;3.00;99.60;;;;;;4881237;29;20051;-80
2022/01/21 17:00:30;;;;;;;6.97;1.95;;;3.00;99.60;;;;;;4873285;29;20586;-80
2022/01/21 17:03:00;;;;;;;8.57;2.22;;;3.00;99.70;;;;;;4880959;29;20045;-79
2022/01/21 17:05:29;;;;;;;6.70;2.28;;;3.00;99.80;;;;;;4881081;29;20505;-79
2022/01/21 17:07:56;;;;;;;9.65;2.70;;;3.00;99.80;;;;;;4881464;29;20502;-78
2022/01/21 17:10:25;;;;;;;12.80;5.03;;;3.00;99.80;;;;;;4881111;29;20053;-80
2022/01/21 17:12:54;;;;;;;9.07;3.20;;;3.00;99.80;;;;;;4881440;29;20049;-80
2022/01/21 17:15:22;;;;;;;7.05;2.92;;;3.10;99.90;;;;;;4879464;29;20135;-80
2022/01/21 17:17:49;;;;;;;7.53;3.10;;;3.00;99.90;;;;;;4881560;29;20112;-81
2022/01/21 17:20:17;;;;;;;8.00;3.22;;;3.00;99.90;;;;;;4881114;29;20053;-78
2022/01/21 17:22:46;;;;;;;8.80;3.20;;;3.00;99.90;;;;;;4881335;29;20487;-79
2022/01/21 17:25:13;;;;;;;13.30;5.68;;;3.00;99.90;;;;;;4880943;29;20051;-77
2022/01/21 17:27:40;;;;;;;20.08;8.13;;;3.00;99.90;;;;;;4880619;29;20080;-78
2022/01/21 17:30:11;;;;;;;21.98;8.75;;;3.00;99.90;;;;;;4880808;29;20048;-79
2022/01/21 17:32:38;;;;;;;10.13;3.65;;;3.00;99.90;;;;;;4880011;29;20562;-80
2022/01/21 17:35:07;;;;;;;7.97;3.22;;;3.00;99.90;;;;;;4871659;29;20473;-80
2022/01/21 17:37:34;;;;;;;8.23;2.95;;;3.00;99.90;;;;;;4873744;29;20056;-78
2022/01/21 17:40:02;;;;;;;9.38;3.30;;;3.00;99.90;;;;;;4880063;29;20052;-77
2022/01/21 17:42:29;;;;;;;8.65;3.20;;;3.00;99.70;;;;;;4881646;29;20133;-77
2022/01/21 17:44:56;;;;;;;7.15;2.97;;;3.00;99.60;;;;;;4881302;29;20418;-78
2022/01/21 17:47:25;;;;;;;10.70;3.80;;;3.00;99.50;;;;;;4880625;29;20055;-78
2022/01/21 17:49:52;;;;;;;8.68;3.50;;;3.00;99.60;;;;;;4881150;29;20136;-80
2022/01/21 17:52:21;;;;;;;7.70;3.05;;;3.00;99.40;;;;;;4873277;29;20057;-80
2022/01/21 17:54:48;;;;;;;7.88;2.85;;;3.00;99.30;;;;;;4867263;29;20140;-78
2022/01/21 17:57:16;;;;;;;9.10;2.55;;;3.00;99.10;;;;;;4869358;29;20498;-77
2022/01/21 17:59:43;;;;;;;6.95;2.90;;;3.00;99.00;;;;;;4880557;29;20048;-77
2022/01/21 18:02:11;;;;;;;8.25;2.97;;;3.00;98.90;;;;;;4880094;29;20063;-78
2022/01/21 18:04:40;;;;;;;8.07;2.97;;;3.00;98.90;;;;;;4880384;29;20049;-77
2022/01/21 18:07:07;;;;;;;9.52;2.60;;;3.00;98.60;;;;;;4877317;29;20053;-80
2022/01/21 18:09:38;;;;;;;7.95;2.53;;;3.00;98.70;;;;;;4877972;29;20064;-76
2022/01/21 18:12:08;;;;;;;7.13;2.50;;;3.00;98.50;;;;;;4874887;29;20156;-78
2022/01/21 18:14:35;;;;;;;8.77;2.80;;;3.00;98.60;;;;;;4877736;29;20045;-78